Time;durP1;ratioP1;P1;durP2;ratioP2;P2;SDS_P1;SDS_P2;PMS_P1;PMS_P2;Temp;Humidity;BMP_temperature;BMP_pressure;BME280_temperature;BME280_humidity;BME280_pressure;Samples;Min_cycle;Max_cycle;Signal;HPM_P1;HPM_P2
2023/08/21 00:00:48;;;;;;;6.00;2.00;;;;;;;28.33;29.68;98791.31;4994193;28;20042;-85
2023/08/21 00:03:14;;;;;;;4.28;2.10;;;;;;;28.36;30.01;98799.97;4993395;28;20034;-86
2023/08/21 00:05:39;;;;;;;6.88;1.70;;;;;;;28.38;29.97;98798.66;4976405;28;20092;-86
2023/08/21 00:08:05;;;;;;;5.15;1.90;;;;;;;28.39;29.70;98794.94;4975625;28;20464;-86
2023/08/21 00:10:32;;;;;;;6.32;2.20;;;;;;;28.40;29.77;98796.59;4992317;28;20042;-86
2023/08/21 00:12:58;;;;;;;8.57;2.20;;;;;;;28.44;29.64;98796.94;4960436;28;20051;-87
2023/08/21 00:15:23;;;;;;;8.82;1.98;;;;;;;28.43;29.42;98792.59;4992705;28;20081;-86
2023/08/21 00:17:49;;;;;;;7.45;1.98;;;;;;;28.44;29.10;98787.00;4975945;28;20101;-85
2023/08/21 00:20:14;;;;;;;8.00;2.30;;;;;;;28.42;29.32;98794.47;4975868;28;20038;-86
2023/08/21 00:22:40;;;;;;;6.88;2.03;;;;;;;28.41;29.45;98783.97;4976088;28;20121;-84
2023/08/21 00:25:06;;;;;;;10.55;2.30;;;;;;;28.45;29.48;98803.91;4992192;28;20045;-85
2023/08/21 00:27:31;;;;;;;10.45;2.10;;;;;;;28.40;29.84;98788.53;4975685;28;20038;-84
2023/08/21 00:29:58;;;;;;;5.10;1.98;;;;;;;28.42;29.81;98799.84;4991903;28;20077;-86
2023/08/21 00:32:23;;;;;;;4.93;1.85;;;;;;;28.42;30.03;98799.84;4975556;28;20065;-85
2023/08/21 00:34:49;;;;;;;6.07;2.35;;;;;;;28.42;29.25;98799.84;4992047;28;20061;-87
2023/08/21 00:37:14;;;;;;;6.35;2.00;;;;;;;28.45;29.54;98790.50;4992174;28;20409;-86
2023/08/21 00:39:40;;;;;;;5.15;1.90;;;;;;;28.47;29.24;98799.16;4975877;28;20038;-86
2023/08/21 00:42:07;;;;;;;8.00;2.20;;;;;;;28.49;30.24;98792.50;4991620;28;20493;-85
2023/08/21 00:44:32;;;;;;;8.33;2.20;;;;;;;28.56;29.54;98794.25;4992938;28;20027;-87
2023/08/21 00:46:58;;;;;;;3.97;2.00;;;;;;;28.60;29.72;98790.09;4991489;28;20061;-86
2023/08/21 00:49:23;;;;;;;5.18;1.92;;;;;;;28.61;29.34;98792.53;4991533;28;20046;-86
2023/08/21 00:51:49;;;;;;;5.03;2.08;;;;;;;28.58;29.85;98778.78;4975496;28;20030;-86
2023/08/21 00:54:14;;;;;;;7.25;2.20;;;;;;;28.64;28.97;98786.72;4975779;28;20042;-85
2023/08/21 00:56:39;;;;;;;4.25;1.92;;;;;;;28.67;29.46;98785.41;4975219;28;20038;-85
2023/08/21 00:59:05;;;;;;;6.43;1.92;;;;;;;28.69;29.10;98786.81;4991428;28;20038;-85
2023/08/21 01:01:30;;;;;;;3.90;1.90;;;;;;;28.72;29.30;98782.84;4975110;28;20413;-85
2023/08/21 01:03:56;;;;;;;7.82;1.90;;;;;;;28.73;29.38;98783.66;4975349;28;20034;-85
2023/08/21 01:06:21;;;;;;;6.15;2.05;;;;;;;28.74;29.63;98790.69;4975195;28;20034;-85
2023/08/21 01:08:55;;;;;;;7.40;2.20;;;;;;;28.77;29.78;98782.97;4975040;28;20037;-85
2023/08/21 01:11:34;;;;;;;9.27;2.08;;;;;;;28.76;29.39;98784.00;4975403;28;20501;-86
2023/08/21 01:14:07;;;;;;;6.93;2.13;;;;;;;28.80;29.88;98784.38;4991116;28;20149;-84
2023/08/21 01:16:33;;;;;;;5.53;2.30;;;;;;;28.83;29.17;98787.41;4975553;28;20492;-85
2023/08/21 01:18:59;;;;;;;9.50;2.38;;;;;;;28.87;29.06;98787.72;4975075;28;20030;-85
2023/08/21 01:21:25;;;;;;;7.03;2.30;;;;;;;28.88;29.47;98786.69;4975022;28;20022;-85
2023/08/21 01:23:50;;;;;;;5.32;2.10;;;;;;;28.84;29.28;98780.97;4975501;28;20084;-82
2023/08/21 01:26:16;;;;;;;9.45;2.28;;;;;;;28.86;29.74;98796.84;4974788;28;20045;-87
2023/08/21 01:28:41;;;;;;;3.42;2.00;;;;;;;28.82;29.74;98787.63;4991256;28;20410;-84
2023/08/21 01:31:13;;;;;;;6.65;2.42;;;;;;;28.81;29.92;98789.50;4974747;28;20118;-88
2023/08/21 01:33:50;;;;;;;4.65;2.10;;;;;;;28.78;29.84;98795.34;4990973;28;20042;-87
2023/08/21 01:36:16;;;;;;;6.47;2.42;;;;;;;28.72;29.97;98788.22;4974977;28;20034;-86
2023/08/21 01:38:41;;;;;;;5.15;2.00;;;;;;;28.70;29.90;98787.63;4975341;28;20465;-87
2023/08/21 01:41:07;;;;;;;4.88;2.30;;;;;;;28.67;30.11;98796.16;4974723;28;20478;-87
2023/08/21 01:43:32;;;;;;;4.28;2.40;;;;;;;28.63;30.05;98789.63;4974707;28;20041;-88
2023/08/21 01:45:58;;;;;;;4.22;2.20;;;;;;;28.60;30.30;98785.53;4990746;28;20037;-86
2023/08/21 01:48:23;;;;;;;4.50;2.28;;;;;;;28.58;30.08;98795.69;4975659;28;20488;-85
2023/08/21 01:50:49;;;;;;;6.78;2.42;;;;;;;28.47;30.25;98778.50;4992611;28;20158;-86
2023/08/21 01:53:14;;;;;;;5.40;2.58;;;;;;;28.56;30.06;98789.72;4991752;28;20030;-88
2023/08/21 01:55:40;;;;;;;5.05;2.28;;;;;;;28.55;30.14;98790.75;4991079;28;20038;-85
2023/08/21 01:58:05;;;;;;;4.13;2.50;;;;;;;28.55;30.63;98798.81;4990891;28;20551;-86
2023/08/21 02:00:31;;;;;;;6.03;2.42;;;;;;;28.53;29.97;98787.50;4991101;28;20085;-85
2023/08/21 02:02:56;;;;;;;3.17;2.20;;;;;;;28.55;30.13;98788.06;4974800;28;20045;-86
2023/08/21 02:05:22;;;;;;;5.97;2.10;;;;;;;28.55;29.99;98792.63;4974402;28;20042;-86
2023/08/21 02:07:47;;;;;;;3.90;2.40;;;;;;;28.54;29.41;98786.41;4990512;28;20097;-86
2023/08/21 02:10:13;;;;;;;5.82;2.40;;;;;;;28.55;29.85;98790.75;4974039;28;20082;-83
2023/08/21 02:12:39;;;;;;;4.90;2.00;;;;;;;28.52;29.84;98781.28;4974245;28;20054;-85
2023/08/21 02:15:05;;;;;;;4.18;2.20;;;;;;;28.54;29.77;98783.75;4992141;28;20401;-85
2023/08/21 02:17:30;;;;;;;4.00;2.03;;;;;;;28.57;30.21;98793.22;4974384;28;20038;-82
2023/08/21 02:19:56;;;;;;;7.28;2.40;;;;;;;28.55;30.40;98796.13;4990103;28;20464;-87
2023/08/21 02:22:21;;;;;;;4.60;2.10;;;;;;;28.54;29.92;98796.34;4990223;28;20047;-84
2023/08/21 02:24:47;;;;;;;5.72;2.30;;;;;;;28.55;30.01;98793.44;4973880;28;20026;-86
2023/08/21 02:27:12;;;;;;;7.70;2.10;;;;;;;28.54;29.65;98783.75;4973683;28;20034;-84
2023/08/21 02:29:38;;;;;;;5.72;2.20;;;;;;;28.57;29.57;98790.53;4990704;28;20433;-86
2023/08/21 02:32:03;;;;;;;7.50;2.22;;;;;;;28.59;30.08;98791.97;4976605;28;20038;-85
2023/08/21 02:34:29;;;;;;;7.03;2.08;;;;;;;28.59;29.80;98794.66;4993732;28;20054;-87
2023/08/21 02:36:54;;;;;;;7.15;2.45;;;;;;;28.57;29.87;98788.66;4977436;28;20088;-87
2023/08/21 02:39:20;;;;;;;5.95;2.03;;;;;;;28.60;29.64;98790.91;4993696;28;20034;-87
2023/08/21 02:41:45;;;;;;;8.25;2.45;;;;;;;28.62;29.70;98799.56;4977286;28;20030;-87
2023/08/21 02:44:11;;;;;;;6.68;2.20;;;;;;;28.64;29.75;98793.94;4993601;28;20038;-87
2023/08/21 02:46:37;;;;;;;3.60;2.10;;;;;;;28.66;29.49;98789.16;4993491;28;20164;-86
2023/08/21 02:49:02;;;;;;;6.38;2.20;;;;;;;28.64;30.10;98789.38;4977123;28;20034;-87
2023/08/21 02:51:28;;;;;;;7.60;2.17;;;;;;;28.65;29.73;98791.00;4992167;28;20038;-86
2023/08/21 02:53:53;;;;;;;9.82;2.25;;;;;;;28.62;29.57;98790.66;4990228;28;20034;-88
2023/08/21 02:56:19;;;;;;;6.25;2.30;;;;;;;28.63;30.10;98798.47;4992992;28;20026;-85
2023/08/21 02:58:44;;;;;;;4.40;2.15;;;;;;;28.62;29.92;98799.56;4978009;28;20518;-81
2023/08/21 03:01:10;;;;;;;7.10;2.10;;;;;;;28.60;30.13;98795.47;4995236;28;20027;-79
2023/08/21 03:03:35;;;;;;;10.18;2.17;;;;;;;28.57;30.17;98796.69;4978192;28;20061;-77
2023/08/21 03:06:01;;;;;;;15.73;2.70;;;;;;;28.50;30.51;98796.00;4994646;28;20039;-77
2023/08/21 03:08:27;;;;;;;14.13;2.45;;;;;;;28.52;31.10;98799.28;4977653;28;20429;-80
2023/08/21 03:10:52;;;;;;;8.30;2.58;;;;;;;28.55;31.71;98798.81;4977883;28;20080;-80
2023/08/21 03:13:18;;;;;;;19.42;2.83;;;;;;;28.59;32.20;98793.81;4994228;28;20054;-83
2023/08/21 03:15:43;;;;;;;7.65;2.53;;;;;;;28.62;32.64;98799.56;4978508;28;20030;-83
2023/08/21 03:18:09;;;;;;;12.65;2.90;;;;;;;28.62;32.02;98804.09;4995254;28;20413;-82
2023/08/21 03:20:34;;;;;;;8.98;2.70;;;;;;;28.60;32.35;98808.88;4978015;28;20084;-79
2023/08/21 03:23:00;;;;;;;17.73;2.70;;;;;;;28.59;31.45;98804.56;4978028;28;20053;-78
2023/08/21 03:25:26;;;;;;;14.68;2.85;;;;;;;28.49;31.46;98813.16;4993956;28;20187;-81
2023/08/21 03:27:51;;;;;;;8.93;2.58;;;;;;;28.46;31.25;98813.63;4977566;28;20034;-78
2023/08/21 03:30:17;;;;;;;9.88;2.58;;;;;;;28.37;31.67;98807.78;4995228;28;20038;-77
2023/08/21 03:32:43;;;;;;;7.20;2.40;;;;;;;28.35;31.36;98812.56;4991118;28;20069;-77
2023/08/21 03:35:08;;;;;;;12.57;2.60;;;;;;;28.31;31.05;98809.53;4988216;28;20034;-76
2023/08/21 03:37:34;;;;;;;8.27;2.33;;;;;;;28.39;31.18;98808.38;4976755;28;20038;-76
2023/08/21 03:39:59;;;;;;;10.95;2.45;;;;;;;28.45;31.28;98803.91;4993707;28;20406;-76
2023/08/21 03:42:25;;;;;;;5.22;2.40;;;;;;;28.58;30.67;98808.31;4959953;28;20045;-77
2023/08/21 03:44:50;;;;;;;7.72;2.60;;;;;;;28.69;30.53;98802.94;4993684;28;20042;-76
2023/08/21 03:47:16;;;;;;;8.48;2.42;;;;;;;28.82;30.25;98801.06;4977079;28;20034;-77
2023/08/21 03:49:42;;;;;;;7.35;2.60;;;;;;;29.05;30.02;98805.59;4993533;28;20026;-77
2023/08/21 03:52:07;;;;;;;8.57;2.70;;;;;;;29.31;29.51;98806.97;4993302;28;20042;-76
2023/08/21 03:54:33;;;;;;;14.25;2.72;;;;;;;29.55;29.05;98805.00;4994401;28;20033;-77
2023/08/21 03:56:58;;;;;;;9.02;2.40;;;;;;;29.81;28.81;98793.94;4993261;28;20038;-77
2023/08/21 03:59:27;;;;;;;13.52;2.40;;;;;;;30.18;28.25;98801.59;4993478;28;20460;-76
2023/08/21 04:01:53;;;;;;;10.15;3.40;;;;;;;30.52;27.73;98801.63;4977639;28;20382;-76
2023/08/21 04:04:18;;;;;;;7.28;2.55;;;;;;;30.87;27.15;98795.94;4976952;28;20103;-76
2023/08/21 04:06:44;;;;;;;8.07;2.63;;;;;;;31.27;26.69;98807.56;4973136;28;20031;-76
2023/08/21 04:09:10;;;;;;;10.90;3.20;;;;;;;31.67;26.13;98798.31;4973946;28;20046;-76
2023/08/21 04:11:36;;;;;;;5.47;2.60;;;;;;;32.14;25.21;98800.41;4975707;28;20054;-77
2023/08/21 04:14:01;;;;;;;6.70;2.50;;;;;;;32.60;25.00;98808.06;4989329;28;20046;-76
2023/08/21 04:16:28;;;;;;;7.47;2.45;;;;;;;33.12;24.68;98803.78;4995944;28;20033;-76
2023/08/21 04:18:53;;;;;;;17.35;2.83;;;;;;;33.62;24.64;98812.38;4995118;28;20489;-75
2023/08/21 04:21:19;;;;;;;8.82;2.72;;;;;;;34.34;24.07;98807.91;5011397;28;20030;-70
2023/08/21 04:23:45;;;;;;;9.90;2.30;;;;;;;34.93;22.76;98811.09;5012936;28;20045;-70
2023/08/21 04:26:11;;;;;;;8.32;2.50;;;;;;;35.55;22.44;98817.13;4996243;28;20049;-71
2023/08/21 04:28:36;;;;;;;13.45;2.45;;;;;;;36.09;21.68;98812.72;5012373;28;20049;-70
2023/08/21 04:31:05;;;;;;;8.02;2.13;;;;;;;36.69;21.18;98820.66;5012067;28;20480;-70
2023/08/21 04:33:31;;;;;;;6.32;2.00;;;;;;;37.23;20.45;98817.94;4995888;28;20508;-70
2023/08/21 04:35:57;;;;;;;8.60;2.40;;;;;;;37.83;20.07;98812.78;4995396;28;20084;-70
2023/08/21 04:38:23;;;;;;;8.52;2.25;;;;;;;38.39;19.41;98828.56;5012090;28;20046;-71
2023/08/21 04:40:48;;;;;;;12.13;2.20;;;;;;;38.93;19.15;98823.50;5012282;28;20052;-69
2023/08/21 04:43:13;;;;;;;11.02;2.15;;;;;;;39.44;18.40;98817.81;5013145;28;20030;-69
2023/08/21 04:45:52;;;;;;;8.05;2.35;;;;;;;40.01;18.10;98816.59;5012121;28;20528;-69
2023/08/21 04:48:18;;;;;;;4.93;1.85;;;;;;;40.47;17.74;98815.47;4984878;28;20030;-70
2023/08/21 04:50:45;;;;;;;7.07;2.25;;;;;;;40.97;17.14;98814.41;4992231;28;20023;-71
2023/08/21 04:53:10;;;;;;;6.82;2.08;;;;;;;41.46;17.04;98816.31;4976072;28;20078;-71
2023/08/21 04:55:36;;;;;;;9.95;2.00;;;;;;;41.89;16.52;98816.38;5008465;28;20061;-71
2023/08/21 04:58:02;;;;;;;9.43;1.92;;;;;;;42.33;16.37;98821.00;4975982;28;20037;-71
2023/08/21 05:00:27;;;;;;;5.83;2.00;;;;;;;42.71;15.85;98828.50;4976016;28;20038;-71
2023/08/21 05:02:53;;;;;;;9.60;2.07;;;;;;;43.12;15.45;98822.34;4959795;28;20065;-71
2023/08/21 05:05:18;;;;;;;7.37;1.80;;;;;;;43.47;15.22;98822.13;4993096;28;20038;-71
2023/08/21 05:07:44;;;;;;;4.73;2.00;;;;;;;43.83;15.21;98822.72;4991649;28;20057;-73
2023/08/21 05:10:09;;;;;;;5.77;1.70;;;;;;;44.14;14.63;98819.50;4975812;28;20026;-72
2023/08/21 05:12:35;;;;;;;5.07;1.70;;;;;;;44.45;14.71;98826.47;4992573;28;20142;-71
2023/08/21 05:15:00;;;;;;;10.37;2.00;;;;;;;44.77;14.18;98829.50;4991791;28;20172;-71
2023/08/21 05:17:29;;;;;;;7.63;1.80;;;;;;;45.03;14.33;98817.41;5008600;28;20502;-71
2023/08/21 05:19:55;;;;;;;7.95;1.70;;;;;;;45.31;13.76;98829.31;4991359;28;20422;-72
2023/08/21 05:22:20;;;;;;;9.03;1.80;;;;;;;45.58;13.61;98821.47;4975101;28;20042;-72
2023/08/21 05:24:46;;;;;;;9.97;2.23;;;;;;;45.82;13.71;98826.09;4991720;28;20042;-73
2023/08/21 05:27:11;;;;;;;10.33;1.97;;;;;;;46.09;12.80;98833.94;4992704;28;20041;-71
2023/08/21 05:29:37;;;;;;;7.80;1.87;;;;;;;46.29;12.88;98834.88;4974199;28;20045;-70
2023/08/21 05:32:02;;;;;;;7.87;2.03;;;;;;;46.50;13.00;98829.13;4992345;28;20029;-71
2023/08/21 05:34:28;;;;;;;5.07;1.70;;;;;;;46.71;12.56;98832.41;4992508;28;20026;-73
2023/08/21 05:36:56;;;;;;;7.13;1.80;;;;;;;46.87;12.42;98837.94;4991436;28;20041;-72
2023/08/21 05:39:21;;;;;;;3.75;1.80;;;;;;;47.05;12.48;98830.09;4992437;28;20075;-72
2023/08/21 05:41:47;;;;;;;5.03;1.73;;;;;;;47.21;12.25;98835.59;4965422;28;20526;-73
2023/08/21 05:44:12;;;;;;;10.30;1.70;;;;;;;47.36;12.27;98835.94;5004651;28;20022;-72
2023/08/21 05:46:38;;;;;;;5.97;1.63;;;;;;;47.46;12.32;98840.88;4976124;28;20510;-73
2023/08/21 05:49:04;;;;;;;9.20;1.97;;;;;;;47.57;12.17;98836.41;4990779;28;20062;-72
2023/08/21 05:51:29;;;;;;;4.10;1.60;;;;;;;47.66;12.32;98838.94;4990295;28;20051;-71
2023/08/21 05:53:55;;;;;;;4.87;1.60;;;;;;;47.77;12.44;98830.91;4991527;28;20033;-71
2023/08/21 05:56:21;;;;;;;8.13;1.93;;;;;;;47.90;12.60;98834.31;4973646;28;20026;-74
2023/08/21 05:58:46;;;;;;;;;;;;;;;47.82;12.59;98825.84;4976095;28;20121;-71
2023/08/21 06:01:12;;;;;;;;;;;;;;;47.98;12.16;98836.03;4991699;28;19953;-72
2023/08/21 06:03:37;;;;;;;11.37;2.00;;;;;;;48.08;11.60;98832.72;4975147;28;19922;-72
2023/08/21 06:06:03;;;;;;;6.67;1.70;;;;;;;48.14;12.15;98831.25;4992431;28;20030;-72
2023/08/21 06:08:28;;;;;;;5.87;2.47;;;;;;;48.17;11.59;98836.06;4979066;28;20037;-75
2023/08/21 06:10:54;;;;;;;8.60;2.70;;;;;;;47.94;11.08;98837.97;4978566;28;20035;-75
2023/08/21 06:13:19;;;;;;;7.73;2.10;;;;;;;48.04;11.72;98842.09;4995432;28;20050;-73
2023/08/21 06:15:45;;;;;;;12.13;2.30;;;;;;;48.15;11.51;98838.38;4995697;28;20030;-72
2023/08/21 06:18:11;;;;;;;6.90;2.07;;;;;;;48.21;11.40;98838.09;4994047;28;20030;-72
2023/08/21 06:20:36;;;;;;;14.88;2.10;;;;;;;48.26;11.24;98844.09;4994941;28;20030;-71
2023/08/21 06:23:05;;;;;;;11.90;2.13;;;;;;;48.31;11.94;98843.00;4978034;28;20066;-71
2023/08/21 06:25:32;;;;;;;9.75;2.00;;;;;;;48.31;11.49;98841.03;4995828;28;20508;-72
2023/08/21 06:27:57;;;;;;;8.38;1.90;;;;;;;48.34;11.94;98850.56;4993916;28;20080;-72
2023/08/21 06:30:23;;;;;;;5.80;1.87;;;;;;;48.37;11.98;98855.38;4977906;28;20497;-73
2023/08/21 06:32:48;;;;;;;5.27;1.93;;;;;;;48.39;11.83;98853.03;4974437;28;20030;-73
2023/08/21 06:35:15;;;;;;;5.43;1.87;;;;;;;48.45;11.85;98856.34;4991624;28;20054;-72
2023/08/21 06:37:40;;;;;;;;;;;;;;;48.33;12.40;98865.56;4977452;28;20529;-72
2023/08/21 06:40:06;;;;;;;4.93;1.80;;;;;;;48.39;11.97;98847.50;4975660;28;20008;-72
2023/08/21 06:42:32;;;;;;;;;;;;;;;48.34;12.34;98854.13;4992013;28;20471;-72
2023/08/21 06:44:57;;;;;;;6.85;2.00;;;;;;;48.41;12.07;98859.06;4991284;28;19918;-74
2023/08/21 06:47:23;;;;;;;15.43;2.37;;;;;;;48.48;11.91;98866.69;4975520;28;20027;-72
2023/08/21 06:49:48;;;;;;;7.17;2.00;;;;;;;48.49;12.26;98862.72;4976616;28;20031;-72
2023/08/21 06:52:14;;;;;;;7.10;1.87;;;;;;;48.50;12.30;98853.25;4975488;28;20035;-72
2023/08/21 06:54:39;;;;;;;11.07;1.90;;;;;;;48.46;11.92;98853.19;4991207;28;20057;-72
2023/08/21 06:57:04;;;;;;;12.27;1.93;;;;;;;48.46;12.22;98860.69;4991472;28;20035;-72
2023/08/21 06:59:30;;;;;;;7.83;2.13;;;;;;;48.47;12.23;98865.06;4991639;28;20047;-72
2023/08/21 07:01:55;;;;;;;10.83;2.20;;;;;;;48.47;11.90;98863.09;4990219;28;20024;-72
2023/08/21 07:04:21;;;;;;;6.97;1.83;;;;;;;48.49;12.58;98868.25;4974997;28;20039;-72
2023/08/21 07:06:46;;;;;;;5.63;1.83;;;;;;;48.49;12.13;98868.25;4975048;28;20026;-73
2023/08/21 07:09:12;;;;;;;7.70;1.93;;;;;;;48.48;12.37;98864.69;4975195;28;20046;-71
2023/08/21 07:11:37;;;;;;;10.50;1.67;;;;;;;48.48;12.40;98861.94;4974450;28;20500;-75
2023/08/21 07:14:03;;;;;;;3.87;1.67;;;;;;;48.58;12.25;98868.81;4989501;28;20558;-73
2023/08/21 07:16:28;;;;;;;13.45;1.85;;;;;;;48.59;11.82;98866.88;4973110;28;20047;-74
2023/08/21 07:18:54;;;;;;;10.03;1.90;;;;;;;48.60;11.94;98863.72;4974458;28;20093;-73
2023/08/21 07:21:20;;;;;;;10.43;2.03;;;;;;;48.64;11.48;98858.25;4974184;28;20023;-72
2023/08/21 07:23:45;;;;;;;8.32;1.80;;;;;;;48.62;11.64;98866.13;4989707;28;20073;-72
2023/08/21 07:26:11;;;;;;;8.17;1.90;;;;;;;48.61;11.67;98862.53;4990456;28;20046;-72
2023/08/21 07:28:36;;;;;;;5.77;1.80;;;;;;;48.60;12.11;98862.91;4990861;28;20058;-73
2023/08/21 07:31:02;;;;;;;5.40;1.90;;;;;;;48.60;12.09;98860.97;4973866;28;20043;-74
2023/08/21 07:33:27;;;;;;;4.37;1.60;;;;;;;48.67;11.83;98865.81;4990857;28;20128;-73
2023/08/21 07:36:03;;;;;;;9.20;1.70;;;;;;;48.65;12.11;98866.19;4990815;28;20027;-72
2023/08/21 07:38:29;;;;;;;9.88;1.95;;;;;;;48.66;12.06;98861.44;4990749;28;20026;-73
2023/08/21 07:41:09;;;;;;;12.00;1.80;;;;;;;48.67;11.58;98865.81;4973084;28;20529;-72
2023/08/21 07:43:35;;;;;;;8.75;1.50;;;;;;;48.72;11.87;98855.19;4974510;28;20508;-73
2023/08/21 07:46:04;;;;;;;10.07;1.83;;;;;;;48.74;11.58;98857.59;4989442;28;20106;-72
2023/08/21 07:48:30;;;;;;;8.60;1.73;;;;;;;48.81;12.08;98863.31;4990909;28;20031;-73
2023/08/21 07:50:56;;;;;;;8.15;1.70;;;;;;;48.86;11.73;98864.97;4990131;28;20050;-72
2023/08/21 07:53:22;;;;;;;14.57;1.83;;;;;;;48.84;11.88;98861.78;4974933;28;20126;-72
2023/08/21 07:55:47;;;;;;;5.07;1.83;;;;;;;48.87;11.39;98863.81;4989871;28;20668;-72
2023/08/21 07:58:13;;;;;;;11.30;1.90;;;;;;;48.96;11.48;98864.31;4990299;28;20056;-72
2023/08/21 08:00:39;;;;;;;7.53;1.70;;;;;;;48.99;11.78;98852.50;4974242;28;20038;-72
2023/08/21 08:03:05;;;;;;;4.55;1.33;;;;;;;49.03;11.15;98858.91;4973238;28;20030;-72
2023/08/21 08:05:31;;;;;;;5.47;1.77;;;;;;;48.99;11.33;98863.56;4989952;28;20477;-73
2023/08/21 08:07:57;;;;;;;7.22;1.92;;;;;;;49.03;11.14;98855.34;4988782;28;20446;-74
2023/08/21 08:10:23;;;;;;;5.13;1.77;;;;;;;49.03;11.41;98856.13;4989201;28;20098;-72
2023/08/21 08:12:49;;;;;;;6.00;1.60;;;;;;;49.07;11.16;98848.69;4989501;28;20077;-74
2023/08/21 08:15:14;;;;;;;6.00;1.63;;;;;;;49.05;11.05;98845.47;4989561;28;20031;-73
2023/08/21 08:17:40;;;;;;;6.43;1.98;;;;;;;49.07;11.10;98836.78;4972769;28;20461;-74
2023/08/21 08:20:06;;;;;;;4.30;1.70;;;;;;;49.11;11.14;98839.59;4989911;28;20042;-73
2023/08/21 08:22:31;;;;;;;6.35;1.73;;;;;;;49.11;10.78;98843.19;5004601;28;20038;-73
2023/08/21 08:24:57;;;;;;;5.70;1.67;;;;;;;49.13;11.28;98843.59;4956394;28;20473;-72
2023/08/21 08:27:22;;;;;;;5.33;1.67;;;;;;;49.12;11.34;98841.19;4957294;28;20046;-72
2023/08/21 08:29:49;;;;;;;4.67;1.60;;;;;;;49.05;11.05;98839.91;4988076;28;20054;-72
2023/08/21 08:32:14;;;;;;;5.70;1.83;;;;;;;49.06;11.26;98843.50;4988858;28;20082;-74
2023/08/21 08:34:40;;;;;;;4.95;1.60;;;;;;;49.00;11.13;98842.22;4956693;28;20531;-78
2023/08/21 08:37:05;;;;;;;5.03;1.50;;;;;;;49.03;10.41;98845.03;4957554;28;20039;-72
2023/08/21 08:39:31;;;;;;;6.67;1.60;;;;;;;48.96;10.37;98856.00;4973534;28;20543;-73
2023/08/21 08:41:59;;;;;;;3.87;1.40;;;;;;;48.79;10.56;98846.25;4972769;28;20058;-72
2023/08/21 08:44:26;;;;;;;4.22;1.50;;;;;;;48.69;10.69;98839.31;4956724;28;20042;-73
2023/08/21 08:46:51;;;;;;;7.93;1.77;;;;;;;48.60;10.36;98841.56;4973029;28;20482;-73
2023/08/21 08:49:17;;;;;;;7.88;3.40;;;;;;;48.46;10.80;98835.78;4956954;28;20047;-72
2023/08/21 08:51:42;;;;;;;7.03;2.47;;;;;;;48.32;10.67;98841.84;4957134;28;20483;-73
2023/08/21 08:54:08;;;;;;;7.60;2.20;;;;;;;48.22;10.92;98847.97;4974429;28;20069;-73
2023/08/21 08:56:34;;;;;;;7.80;2.10;;;;;;;48.08;11.04;98840.19;4956933;28;20501;-72
2023/08/21 08:58:59;;;;;;;6.60;1.80;;;;;;;48.00;11.26;98834.53;4972534;28;20038;-72
2023/08/21 09:01:24;;;;;;;4.23;1.70;;;;;;;47.78;10.82;98835.28;4956950;28;20026;-73
2023/08/21 09:03:51;;;;;;;10.30;1.77;;;;;;;47.67;10.72;98843.34;4972856;28;20050;-72
2023/08/21 09:06:16;;;;;;;7.70;1.67;;;;;;;47.51;10.71;98829.56;4973763;28;20081;-74
2023/08/21 09:09:10;;;;;;;5.30;1.40;;;;;;;47.42;10.72;98834.50;4972762;28;20042;-73
2023/08/21 09:11:35;;;;;;;7.13;1.55;;;;;;;47.34;10.87;98821.69;5002086;28;20069;-72
2023/08/21 09:14:01;;;;;;;11.03;1.50;;;;;;;47.34;10.67;98836.31;4956124;28;20038;-73
2023/08/21 09:16:26;;;;;;;4.60;1.47;;;;;;;47.25;11.01;98835.66;4972347;28;20231;-73
2023/08/21 09:18:56;;;;;;;4.47;1.40;;;;;;;46.97;10.98;98828.34;4971351;28;20039;-73
2023/08/21 09:21:23;;;;;;;6.38;1.73;;;;;;;46.90;10.70;98834.44;4955883;28;20098;-73
2023/08/21 09:23:49;;;;;;;5.28;1.60;;;;;;;46.80;10.72;98823.16;4988177;28;20061;-72
2023/08/21 09:26:21;;;;;;;5.43;1.42;;;;;;;46.67;10.88;98819.69;4956217;28;20030;-73
2023/08/21 09:28:51;;;;;;;8.50;1.58;;;;;;;46.55;10.54;98809.56;4955747;28;20039;-73
2023/08/21 09:31:21;;;;;;;9.75;1.55;;;;;;;46.41;10.74;98813.50;4972738;28;20031;-72
2023/08/21 09:34:07;;;;;;;5.50;1.45;;;;;;;46.25;10.30;98822.94;4987452;28;20554;-72
2023/08/21 09:36:33;;;;;;;5.90;1.20;;;;;;;46.13;11.02;98816.31;4987305;28;20027;-73
2023/08/21 09:38:59;;;;;;;5.38;1.50;;;;;;;46.04;10.63;98805.44;4972708;28;20042;-73
2023/08/21 09:41:27;;;;;;;5.90;1.48;;;;;;;45.96;10.60;98795.38;4970721;28;20035;-73
2023/08/21 09:43:53;;;;;;;7.68;1.70;;;;;;;45.55;10.56;98789.09;4987932;28;20043;-73
2023/08/21 09:46:25;;;;;;;4.17;1.30;;;;;;;45.48;11.42;98808.16;4955975;28;20031;-74
2023/08/21 09:48:54;;;;;;;5.68;1.45;;;;;;;45.42;11.16;98790.25;4955283;28;20027;-73
2023/08/21 09:51:20;;;;;;;5.85;1.83;;;;;;;44.91;12.07;98791.44;4972102;28;20215;-74
2023/08/21 09:53:47;;;;;;;5.00;1.80;;;;;;;44.98;12.19;98796.38;4971901;28;20049;-74
2023/08/21 09:56:13;;;;;;;4.70;1.40;;;;;;;44.96;11.60;98776.63;4987834;28;20114;-73
2023/08/21 09:58:38;;;;;;;9.63;1.80;;;;;;;44.98;12.40;98785.38;4987495;28;20142;-74
2023/08/21 10:01:11;;;;;;;5.03;1.40;;;;;;;44.98;12.61;98782.59;4972536;28;20023;-74
2023/08/21 10:03:38;;;;;;;5.68;1.70;;;;;;;44.79;11.83;98778.47;4972346;28;20494;-72
2023/08/21 10:06:05;;;;;;;4.38;1.67;;;;;;;44.50;12.27;98773.16;4988322;28;20086;-73
2023/08/21 10:08:30;;;;;;;;;;;;;;;44.55;12.68;98771.00;4955897;28;20031;-73
2023/08/21 10:10:56;;;;;;;5.40;1.60;;;;;;;44.41;12.40;98771.34;5004719;28;19929;-73
2023/08/21 10:13:21;;;;;;;5.43;1.73;;;;;;;44.01;12.64;98771.91;4955548;28;20503;-73
2023/08/21 10:15:47;;;;;;;7.07;1.57;;;;;;;43.87;13.00;98772.22;4987641;28;20110;-75
2023/08/21 10:18:25;;;;;;;4.37;1.80;;;;;;;43.94;12.65;98777.16;4955826;28;20510;-73
2023/08/21 10:20:52;;;;;;;6.28;1.63;;;;;;;43.93;12.77;98764.53;4972187;28;20069;-72
2023/08/21 10:23:29;;;;;;;6.03;1.60;;;;;;;43.95;12.82;98773.28;4988113;28;20030;-72
2023/08/21 10:25:58;;;;;;;4.80;1.58;;;;;;;43.81;12.62;98759.03;4988250;28;20035;-73
2023/08/21 10:28:23;;;;;;;12.27;1.77;;;;;;;43.68;12.69;98749.88;4955845;28;20027;-73
2023/08/21 10:30:49;;;;;;;9.37;1.70;;;;;;;43.50;12.72;98762.97;4971736;28;20073;-73
2023/08/21 10:33:14;;;;;;;4.57;1.53;;;;;;;43.26;13.12;98764.41;4955492;28;20035;-75
2023/08/21 10:35:40;;;;;;;7.50;1.63;;;;;;;43.14;13.60;98761.59;4971883;28;20609;-73
2023/08/21 10:38:17;;;;;;;9.70;1.67;;;;;;;42.97;13.66;98760.59;4955908;28;20035;-73
2023/08/21 10:41:06;;;;;;;8.98;1.67;;;;;;;42.91;13.55;98752.84;4955639;28;20041;-74
2023/08/21 10:43:43;;;;;;;7.68;1.90;;;;;;;42.88;13.92;98751.56;4972040;28;20019;-73
2023/08/21 10:46:08;;;;;;;9.90;1.60;;;;;;;42.77;13.85;98753.88;4955890;28;20066;-72
2023/08/21 10:48:34;;;;;;;7.13;2.03;;;;;;;42.68;12.66;98755.84;4988316;28;20120;-74
2023/08/21 10:51:04;;;;;;;4.60;1.50;;;;;;;42.56;13.22;98750.25;4971754;28;20410;-72
2023/08/21 10:53:31;;;;;;;9.07;2.00;;;;;;;42.50;13.58;98746.88;4975000;28;20757;-72
2023/08/21 10:55:57;;;;;;;6.80;1.70;;;;;;;42.39;13.53;98738.22;4975279;28;20057;-73
2023/08/21 10:58:22;;;;;;;4.83;1.80;;;;;;;42.30;14.29;98745.66;4959348;28;20069;-73
2023/08/21 11:00:59;;;;;;;4.37;1.80;;;;;;;42.15;14.15;98737.97;4976281;28;20278;-77
2023/08/21 11:03:24;;;;;;;9.25;2.25;;;;;;;41.86;14.73;98747.66;4975042;28;20058;-73
2023/08/21 11:06:10;;;;;;;12.07;1.80;;;;;;;41.68;14.75;98757.81;4991005;28;20076;-72
2023/08/21 11:08:36;;;;;;;6.18;1.70;;;;;;;41.49;14.90;98744.47;4976024;28;20450;-72
2023/08/21 11:11:03;;;;;;;4.40;1.70;;;;;;;41.44;14.81;98739.16;4958758;28;20081;-74
2023/08/21 11:13:28;;;;;;;7.00;1.88;;;;;;;41.30;14.97;98762.00;4958970;28;20046;-71
2023/08/21 11:15:58;;;;;;;5.33;1.70;;;;;;;41.23;14.87;98743.28;4974869;28;20042;-73
2023/08/21 11:18:29;;;;;;;9.18;1.98;;;;;;;41.18;15.17;98742.63;4975992;28;20030;-73
2023/08/21 11:21:05;;;;;;;9.57;2.00;;;;;;;41.16;15.08;98744.88;4974783;28;20089;-73
2023/08/21 11:23:34;;;;;;;9.35;2.10;;;;;;;40.92;15.05;98745.34;4958970;28;20082;-73
2023/08/21 11:26:00;;;;;;;4.80;1.70;;;;;;;40.71;15.40;98751.38;4958791;28;20073;-73
2023/08/21 11:28:25;;;;;;;4.47;1.73;;;;;;;40.70;14.79;98747.81;4974661;28;20035;-75
2023/08/21 11:30:51;;;;;;;5.00;1.60;;;;;;;40.64;14.83;98743.63;4974418;28;20506;-71